Johnson Creek, Wisconsin
Current Conditions -  °F | °C
As of 6:15 AM on Thursday 29 Jan 2015 (Local Time) from KRYV Reporting Station
Overcast Overcast  
Wind Chill: -6°   Ceiling: 1100
Heat Index: -1°   Visibility: 7mi
Dew Point: -3°   Wind: 10mph
Humidity: 88%   Direction: 330°NNW
Pressure: 29.77"   Gusts: 16mph
Location:  43.08°N, 88.77°W
Report Text: KRYV 291215Z AUTO 33009G14KT 7SM OVC011 M01/M02 A2977 RMK AO2 T10081025
Loading
Personal Weather Stations






























Interactive Weather Map New forecast layout! Learn more

10-Day Weather Forecast

Advertisements
Track Severe Weather on mobile